createdAt,value
2022-08-03T00:00:21.423Z,13.35
2022-08-03T00:02:47.986Z,7.90
2022-08-03T00:05:14.409Z,5.75
2022-08-03T00:07:41.339Z,8.63
2022-08-03T00:10:10.550Z,8.13
2022-08-03T00:12:36.883Z,11.93
2022-08-03T00:15:03.724Z,6.40
2022-08-03T00:17:52.978Z,5.97
2022-08-03T00:20:20.585Z,9.20
2022-08-03T00:22:47.382Z,10.85
2022-08-03T00:25:13.752Z,7.28
2022-08-03T00:27:40.148Z,9.13
2022-08-03T00:30:06.976Z,8.10
2022-08-03T00:32:33.370Z,6.13
2022-08-03T00:34:59.796Z,8.73
2022-08-03T00:37:41.570Z,8.40
2022-08-03T00:40:09.297Z,5.50
2022-08-03T00:42:45.870Z,6.93
2022-08-03T00:45:12.297Z,11.02
2022-08-03T00:47:39.834Z,5.78
2022-08-03T00:50:06.446Z,8.98
2022-08-03T00:52:32.929Z,10.50
2022-08-03T00:55:00.574Z,6.22
2022-08-03T00:57:27.280Z,9.50
2022-08-03T00:59:54.395Z,8.40
2022-08-03T01:02:20.735Z,9.23
2022-08-03T01:04:47.345Z,7.13
2022-08-03T01:07:18.764Z,5.88
2022-08-03T01:09:55.606Z,10.20
2022-08-03T01:12:37.122Z,6.03
2022-08-03T01:15:09.437Z,5.85
2022-08-03T01:17:40.137Z,6.60
2022-08-03T01:20:09.401Z,11.25
2022-08-03T01:22:51.066Z,6.43
2022-08-03T01:25:36.537Z,9.48
2022-08-03T01:28:20.093Z,14.02
2022-08-03T01:30:47.248Z,8.77
2022-08-03T01:33:19.020Z,6.75
2022-08-03T01:35:47.356Z,8.52
2022-08-03T01:38:15.188Z,14.80
2022-08-03T01:40:42.701Z,8.05
2022-08-03T01:43:10.669Z,12.40
2022-08-03T01:45:37.720Z,9.50
2022-08-03T01:48:05.010Z,7.25
2022-08-03T01:50:31.974Z,9.60
2022-08-03T01:52:58.597Z,11.45
2022-08-03T01:55:28.272Z,13.52
2022-08-03T01:58:05.299Z,10.82
2022-08-03T02:00:35.209Z,7.68
2022-08-03T02:03:05.475Z,5.65
2022-08-03T02:05:32.715Z,9.15
2022-08-03T02:07:59.887Z,7.90
2022-08-03T02:10:35.223Z,8.35
2022-08-03T02:13:03.081Z,5.88
2022-08-03T02:15:30.374Z,10.40
2022-08-03T02:17:57.678Z,8.57
2022-08-03T02:20:24.951Z,11.20
2022-08-03T02:22:51.363Z,9.60
2022-08-03T02:25:17.957Z,5.70
2022-08-03T02:27:52.241Z,6.25
2022-08-03T02:30:19.466Z,9.48
2022-08-03T02:32:57.839Z,7.63
2022-08-03T02:35:25.303Z,7.10
2022-08-03T02:37:55.894Z,8.55
2022-08-03T02:40:23.379Z,9.05
2022-08-03T02:42:51.381Z,7.20
2022-08-03T02:45:18.471Z,7.32
2022-08-03T02:47:54.329Z,9.00
2022-08-03T02:50:22.103Z,7.20
2022-08-03T02:52:49.620Z,7.03
2022-08-03T02:55:16.181Z,7.82
2022-08-03T02:57:43.866Z,7.00
2022-08-03T03:00:10.476Z,12.63
2022-08-03T03:02:37.080Z,10.57
2022-08-03T03:05:55.137Z,7.47
2022-08-03T03:07:53.212Z,8.00
2022-08-03T03:10:22.162Z,9.23
2022-08-03T03:12:50.211Z,10.65
2022-08-03T03:15:16.662Z,8.02
2022-08-03T03:17:43.612Z,11.50
2022-08-03T03:20:10.669Z,9.32
2022-08-03T03:22:38.001Z,10.80
2022-08-03T03:25:06.694Z,10.23
2022-08-03T03:27:34.225Z,10.43
2022-08-03T03:30:00.631Z,9.65
2022-08-03T03:32:27.934Z,10.57
2022-08-03T03:34:55.032Z,15.82
2022-08-03T03:37:24.773Z,16.77
2022-08-03T03:39:51.130Z,15.70
2022-08-03T03:42:17.762Z,12.73
2022-08-03T03:44:44.219Z,15.65
2022-08-03T03:47:10.701Z,12.48
2022-08-03T03:49:39.339Z,12.73
2022-08-03T03:52:08.107Z,12.20
2022-08-03T03:54:41.371Z,11.60
2022-08-03T03:57:08.044Z,11.55
2022-08-03T03:59:39.767Z,13.07
2022-08-03T04:02:09.714Z,12.40
2022-08-03T04:04:55.320Z,12.85
2022-08-03T04:07:41.554Z,10.95
2022-08-03T04:12:53.100Z,15.85
2022-08-03T04:15:21.695Z,10.80
2022-08-03T04:17:50.244Z,13.13
2022-08-03T04:20:17.347Z,11.95
2022-08-03T04:22:43.810Z,10.88
2022-08-03T04:25:14.185Z,9.52
2022-08-03T04:27:41.550Z,13.40
2022-08-03T04:30:09.225Z,9.18
2022-08-03T04:32:37.095Z,10.70
2022-08-03T04:35:03.630Z,10.75
2022-08-03T04:37:32.772Z,9.75
2022-08-03T04:40:01.823Z,11.82
2022-08-03T04:42:30.806Z,11.15
2022-08-03T04:45:01.165Z,11.10
2022-08-03T04:47:28.275Z,10.25
2022-08-03T04:49:54.948Z,9.43
2022-08-03T04:52:21.393Z,10.73
2022-08-03T04:54:50.601Z,8.32
2022-08-03T04:57:22.134Z,12.27
2022-08-03T04:59:54.670Z,12.27
2022-08-03T05:02:24.492Z,12.70
2022-08-03T05:04:50.877Z,9.00
2022-08-03T05:07:20.493Z,10.85
2022-08-03T05:09:52.683Z,11.07
2022-08-03T05:12:24.186Z,16.63
2022-08-03T05:14:50.523Z,8.45
2022-08-03T05:17:16.870Z,9.20
2022-08-03T05:19:43.255Z,9.77
2022-08-03T05:22:09.667Z,12.38
2022-08-03T05:24:36.024Z,11.55
2022-08-03T05:27:02.424Z,10.55
2022-08-03T05:29:28.837Z,14.63
2022-08-03T05:31:55.679Z,11.50
2022-08-03T05:34:22.019Z,8.40
2022-08-03T05:36:48.386Z,8.85
2022-08-03T05:39:14.807Z,7.45
2022-08-03T05:41:41.188Z,11.43
2022-08-03T05:44:07.590Z,9.48
2022-08-03T05:46:33.986Z,7.47
2022-08-03T05:49:00.429Z,10.05
2022-08-03T05:51:27.759Z,7.07
2022-08-03T05:53:54.143Z,9.73
2022-08-03T05:56:25.218Z,8.35
2022-08-03T05:58:52.548Z,8.13
2022-08-03T06:01:19.328Z,11.02
2022-08-03T06:03:46.046Z,8.27
2022-08-03T06:06:12.661Z,7.32
2022-08-03T06:08:39.821Z,5.13
2022-08-03T06:11:06.470Z,8.43
2022-08-03T06:13:32.866Z,9.10
2022-08-03T06:15:59.215Z,9.18
2022-08-03T06:18:25.795Z,6.95
2022-08-03T06:20:52.559Z,7.28
2022-08-03T06:23:19.329Z,7.72
2022-08-03T06:25:46.285Z,8.80
2022-08-03T06:28:42.487Z,6.60
2022-08-03T06:31:00.968Z,3.90
2022-08-03T06:34:22.876Z,4.38
2022-08-03T06:36:13.896Z,5.20
2022-08-03T06:38:40.324Z,10.85
2022-08-03T06:41:06.747Z,3.00
2022-08-03T06:43:37.375Z,9.10
2022-08-03T06:46:05.233Z,10.73
2022-08-03T06:48:31.842Z,3.55
2022-08-03T06:50:58.217Z,8.20
2022-08-03T06:53:24.607Z,7.38
2022-08-03T06:55:54.404Z,5.93
2022-08-03T06:58:21.706Z,8.00
2022-08-03T07:00:48.099Z,5.50
2022-08-03T07:03:15.125Z,7.85
2022-08-03T07:05:42.306Z,5.65
2022-08-03T07:08:08.725Z,4.55
2022-08-03T07:10:35.135Z,4.15
2022-08-03T07:13:01.691Z,6.97
2022-08-03T07:15:54.631Z,6.93
2022-08-03T07:18:14.520Z,9.88
2022-08-03T07:20:41.029Z,3.03
2022-08-03T07:23:07.369Z,5.32
2022-08-03T07:25:33.729Z,4.05
2022-08-03T07:28:00.078Z,2.47
2022-08-03T07:30:26.557Z,5.82
2022-08-03T07:32:52.942Z,4.85
2022-08-03T07:35:25.117Z,3.67
2022-08-03T07:37:54.319Z,4.45
2022-08-03T07:40:22.063Z,6.68
2022-08-03T07:42:48.622Z,6.28
2022-08-03T07:45:19.749Z,3.67
2022-08-03T07:47:46.174Z,7.30
2022-08-03T07:50:20.072Z,3.80
2022-08-03T07:52:49.785Z,5.85
2022-08-03T07:55:16.941Z,5.05
2022-08-03T07:57:43.391Z,4.15
2022-08-03T08:00:17.485Z,4.18
2022-08-03T08:02:44.471Z,7.90
2022-08-03T08:05:11.250Z,2.13
2022-08-03T08:07:40.784Z,5.85
2022-08-03T08:10:08.210Z,2.33
2022-08-03T08:12:34.615Z,5.43
2022-08-03T08:15:01.287Z,5.68
2022-08-03T08:17:27.675Z,2.58
2022-08-03T08:19:54.065Z,4.43
2022-08-03T08:22:25.868Z,9.20
2022-08-03T08:27:23.522Z,4.97
2022-08-03T08:29:55.221Z,4.05
2022-08-03T08:32:23.969Z,3.90
2022-08-03T08:34:50.952Z,7.38
2022-08-03T08:37:17.543Z,7.03
2022-08-03T08:39:43.916Z,2.53
2022-08-03T08:42:10.453Z,2.65
2022-08-03T08:44:36.942Z,7.60
2022-08-03T08:47:03.734Z,3.08
2022-08-03T08:49:32.614Z,4.72
2022-08-03T08:52:01.062Z,2.97
2022-08-03T08:54:28.683Z,4.05
2022-08-03T08:56:56.181Z,2.03
2022-08-03T08:59:22.872Z,4.38
2022-08-03T09:01:49.493Z,3.40
2022-08-03T09:04:16.077Z,2.28
2022-08-03T09:06:50.313Z,2.58
2022-08-03T09:10:08.450Z,7.55
2022-08-03T09:12:39.059Z,2.13
2022-08-03T09:15:17.199Z,2.53
2022-08-03T09:17:47.591Z,4.32
2022-08-03T09:20:16.867Z,7.13
2022-08-03T09:23:44.808Z,3.70
2022-08-03T09:26:01.641Z,6.05
2022-08-03T09:28:59.874Z,7.78
2022-08-03T09:31:20.342Z,3.35
2022-08-03T09:33:47.600Z,5.15
2022-08-03T09:36:34.455Z,4.22
2022-08-03T09:39:02.877Z,2.95
2022-08-03T09:41:29.255Z,3.80
2022-08-03T09:43:57.091Z,3.60
2022-08-03T09:46:23.511Z,8.60
2022-08-03T09:48:49.929Z,4.97
2022-08-03T09:51:33.213Z,2.35
2022-08-03T09:54:16.339Z,2.33
2022-08-03T09:56:47.285Z,3.15
2022-08-03T09:59:22.656Z,7.10
2022-08-03T10:04:17.003Z,3.92
2022-08-03T10:06:44.116Z,3.72
2022-08-03T10:09:10.478Z,3.70
2022-08-03T10:11:42.136Z,4.28
2022-08-03T10:14:18.884Z,6.43
2022-08-03T10:16:46.442Z,5.35
2022-08-03T10:19:14.301Z,5.18
2022-08-03T10:21:42.044Z,2.30
2022-08-03T10:24:12.382Z,2.15
2022-08-03T10:26:49.548Z,3.35
2022-08-03T10:29:26.634Z,1.55
2022-08-03T10:31:58.098Z,1.45
2022-08-03T10:34:29.090Z,2.92
2022-08-03T10:36:57.230Z,1.50
2022-08-03T10:39:27.359Z,3.65
2022-08-03T10:41:55.280Z,1.88
2022-08-03T10:44:23.886Z,2.63
2022-08-03T10:46:50.799Z,2.25
2022-08-03T10:49:33.851Z,2.90
2022-08-03T10:52:00.680Z,2.15
2022-08-03T10:55:03.250Z,3.75
2022-08-03T10:57:45.864Z,3.58
2022-08-03T11:00:19.089Z,3.33
2022-08-03T11:03:04.212Z,1.85
2022-08-03T11:05:32.191Z,1.60
2022-08-03T11:08:17.235Z,4.93
2022-08-03T11:13:10.917Z,4.60
2022-08-03T11:15:39.706Z,2.78
2022-08-03T11:18:13.717Z,3.70
2022-08-03T11:20:53.505Z,5.70
2022-08-03T11:24:02.643Z,1.75
2022-08-03T11:26:25.992Z,5.07
2022-08-03T11:28:52.395Z,2.30
2022-08-03T11:31:46.710Z,3.25
2022-08-03T11:34:08.996Z,3.80
2022-08-03T11:36:53.998Z,3.08
2022-08-03T11:41:46.672Z,2.72
2022-08-03T11:44:33.007Z,2.08
2022-08-03T11:47:00.077Z,3.60
2022-08-03T11:49:26.493Z,3.90
2022-08-03T11:51:55.891Z,3.03
2022-08-03T11:54:22.824Z,1.83
2022-08-03T11:56:50.145Z,3.35
2022-08-03T11:59:21.821Z,1.90
2022-08-03T12:01:49.220Z,5.35
2022-08-03T12:04:16.576Z,1.33
2022-08-03T12:06:57.933Z,3.30
2022-08-03T12:09:24.432Z,2.90
2022-08-03T12:11:59.485Z,5.20
2022-08-03T12:14:48.712Z,2.38
2022-08-03T12:17:13.659Z,2.50
2022-08-03T12:19:43.497Z,3.08
2022-08-03T12:22:09.866Z,5.50
2022-08-03T12:24:42.797Z,3.17
2022-08-03T12:27:09.350Z,4.38
2022-08-03T12:29:35.932Z,5.88
2022-08-03T12:32:02.333Z,2.55
2022-08-03T12:34:48.171Z,6.35
2022-08-03T12:37:22.110Z,4.13
2022-08-03T12:40:10.211Z,2.85
2022-08-03T12:42:37.891Z,5.32
2022-08-03T12:45:19.613Z,5.43
2022-08-03T12:47:59.853Z,4.47
2022-08-03T12:50:31.325Z,3.40
2022-08-03T12:52:59.298Z,5.43
2022-08-03T12:55:57.267Z,4.68
2022-08-03T12:58:34.229Z,6.17
2022-08-03T13:01:01.643Z,4.35
2022-08-03T13:03:42.763Z,4.18
2022-08-03T13:06:13.970Z,3.20
2022-08-03T13:08:40.462Z,3.95
2022-08-03T13:11:19.259Z,5.78
2022-08-03T13:13:46.263Z,6.95
2022-08-03T13:16:17.208Z,3.20
2022-08-03T13:18:47.122Z,4.22
2022-08-03T13:21:15.660Z,3.97
2022-08-03T13:23:42.735Z,2.10
2022-08-03T13:26:09.620Z,3.10
2022-08-03T13:28:39.026Z,4.47
2022-08-03T13:31:06.176Z,2.40
2022-08-03T13:33:33.758Z,2.67
2022-08-03T13:36:01.402Z,2.25
2022-08-03T13:38:27.887Z,3.47
2022-08-03T13:40:54.961Z,7.13
2022-08-03T13:43:22.478Z,6.47
2022-08-03T13:45:56.556Z,4.10
2022-08-03T13:48:37.080Z,5.10
2022-08-03T13:51:11.654Z,3.05
2022-08-03T13:56:15.110Z,4.75
2022-08-03T13:58:44.409Z,2.30
2022-08-03T14:01:11.402Z,7.07
2022-08-03T14:03:38.012Z,3.65
2022-08-03T14:06:04.409Z,4.03
2022-08-03T14:08:30.849Z,15.82
2022-08-03T14:10:57.432Z,3.55
2022-08-03T14:13:25.017Z,10.68
2022-08-03T14:15:51.903Z,4.03
2022-08-03T14:18:28.713Z,3.38
2022-08-03T14:21:04.958Z,5.68
2022-08-03T14:23:32.588Z,6.35
2022-08-03T14:25:59.366Z,2.15
2022-08-03T14:28:25.779Z,2.65
2022-08-03T14:30:52.752Z,3.08
2022-08-03T14:33:22.304Z,8.68
2022-08-03T14:35:48.939Z,2.65
2022-08-03T14:38:15.494Z,5.57
2022-08-03T14:40:42.011Z,2.72
2022-08-03T14:43:08.386Z,3.47
2022-08-03T14:45:34.774Z,2.30
2022-08-03T14:50:24.960Z,5.72
2022-08-03T14:50:51.277Z,3.30
2022-08-03T14:53:18.431Z,6.57
2022-08-03T14:55:50.020Z,4.18
2022-08-03T14:58:19.699Z,4.97
2022-08-03T15:00:47.720Z,2.78
2022-08-03T15:03:15.907Z,3.88
2022-08-03T15:05:43.748Z,2.45
2022-08-03T15:08:10.123Z,7.50
2022-08-03T15:10:44.400Z,5.88
2022-08-03T15:13:12.803Z,3.80
2022-08-03T15:15:39.219Z,3.28
2022-08-03T15:18:05.726Z,6.30
2022-08-03T15:20:43.932Z,1.80
2022-08-03T15:23:11.909Z,4.57
2022-08-03T15:26:29.500Z,3.45
2022-08-03T15:28:24.744Z,3.97
2022-08-03T15:30:51.821Z,5.65
2022-08-03T15:33:18.482Z,4.75
2022-08-03T15:35:46.408Z,5.50
2022-08-03T15:38:13.211Z,4.80
2022-08-03T15:40:39.877Z,3.42
2022-08-03T15:43:06.527Z,3.75
2022-08-03T15:45:36.532Z,14.10
2022-08-03T15:48:04.089Z,4.68
2022-08-03T15:50:30.607Z,1.98
2022-08-03T15:52:57.130Z,2.00
2022-08-03T15:55:23.580Z,3.22
2022-08-03T15:59:04.324Z,2.08
2022-08-03T16:00:36.448Z,2.47
2022-08-03T16:03:02.881Z,2.15
2022-08-03T16:05:29.483Z,2.97
2022-08-03T16:08:04.025Z,4.35
2022-08-03T16:10:31.941Z,3.20
2022-08-03T16:13:01.360Z,3.28
2022-08-03T16:15:27.775Z,5.70
2022-08-03T16:17:54.312Z,3.42
2022-08-03T16:20:31.668Z,10.73
2022-08-03T16:23:10.846Z,5.13
2022-08-03T16:25:38.347Z,6.53
2022-08-03T16:28:07.771Z,3.97
2022-08-03T16:30:39.691Z,1.95
2022-08-03T16:33:06.187Z,3.38
2022-08-03T16:35:32.665Z,4.50
2022-08-03T16:37:59.059Z,3.33
2022-08-03T16:40:26.115Z,3.58
2022-08-03T16:42:52.519Z,3.30
2022-08-03T16:45:19.116Z,4.45
2022-08-03T16:47:45.546Z,3.42
2022-08-03T16:50:19.065Z,7.68
2022-08-03T16:52:47.353Z,2.67
2022-08-03T16:55:15.365Z,4.85
2022-08-03T16:57:59.118Z,3.65
2022-08-03T17:00:32.907Z,4.20
2022-08-03T17:03:00.476Z,4.38
2022-08-03T17:05:27.489Z,2.47
2022-08-03T17:08:12.670Z,3.50
2022-08-03T17:10:41.353Z,7.13
2022-08-03T17:13:11.120Z,2.75
2022-08-03T17:15:58.622Z,7.78
2022-08-03T17:18:29.723Z,4.22
2022-08-03T17:20:57.447Z,3.38
2022-08-03T17:23:34.414Z,4.20
2022-08-03T17:26:04.275Z,3.53
2022-08-03T17:28:50.237Z,9.70
2022-08-03T17:31:32.067Z,2.10
2022-08-03T17:34:09.962Z,5.82
2022-08-03T17:37:02.535Z,2.67
2022-08-03T17:39:42.131Z,3.38
2022-08-03T17:42:31.300Z,2.58
2022-08-03T17:45:01.727Z,3.00
2022-08-03T17:47:41.331Z,5.45
2022-08-03T17:50:23.283Z,13.77
2022-08-03T17:52:52.465Z,25.58
2022-08-03T17:55:55.979Z,43.80
2022-08-03T17:58:18.160Z,39.42
2022-08-03T18:02:03.350Z,23.17
2022-08-03T18:06:56.746Z,18.10
2022-08-03T18:10:03.865Z,17.85
2022-08-03T18:12:13.994Z,17.10
2022-08-03T18:14:57.726Z,41.15
2022-08-03T18:17:55.965Z,11.90
2022-08-03T18:20:32.859Z,19.75
2022-08-03T18:23:04.970Z,16.23
2022-08-03T18:25:45.353Z,16.45
2022-08-03T18:28:16.406Z,14.55
2022-08-03T18:30:54.437Z,13.70
2022-08-03T18:34:19.922Z,5.13
2022-08-03T18:36:09.366Z,9.77
2022-08-03T18:38:36.031Z,13.02
2022-08-03T18:41:02.944Z,5.55
2022-08-03T18:43:46.285Z,8.00
2022-08-03T18:46:20.284Z,34.25
2022-08-03T18:49:08.190Z,18.63
2022-08-03T18:51:43.391Z,25.42
2022-08-03T18:54:45.643Z,18.23
2022-08-03T18:57:16.934Z,8.38
2022-08-03T18:59:55.126Z,15.48
2022-08-03T19:02:29.629Z,8.57
2022-08-03T19:05:03.439Z,10.98
2022-08-03T19:07:36.133Z,8.55
2022-08-03T19:10:09.458Z,16.65
2022-08-03T19:12:44.479Z,12.70
2022-08-03T19:15:13.529Z,10.35
2022-08-03T19:17:50.118Z,11.32
2022-08-03T19:20:20.767Z,8.25
2022-08-03T19:22:47.964Z,18.85
2022-08-03T19:25:14.541Z,8.45
2022-08-03T19:27:43.514Z,11.18
2022-08-03T19:30:21.786Z,10.65
2022-08-03T19:32:53.283Z,8.80
2022-08-03T19:35:51.595Z,12.35
2022-08-03T19:38:06.317Z,11.50
2022-08-03T19:40:35.337Z,9.52
2022-08-03T19:43:07.749Z,7.40
2022-08-03T19:46:04.443Z,13.57
2022-08-03T19:48:28.715Z,7.38
2022-08-03T19:50:56.804Z,8.50
2022-08-03T19:53:35.337Z,7.88
2022-08-03T19:56:04.204Z,14.80
2022-08-03T19:58:31.213Z,13.07
2022-08-03T20:00:58.185Z,8.20
2022-08-03T20:03:42.894Z,4.30
2022-08-03T20:06:12.160Z,12.20
2022-08-03T20:08:44.067Z,7.03
2022-08-03T20:11:11.031Z,10.88
2022-08-03T20:13:38.973Z,4.32
2022-08-03T20:16:05.959Z,6.82
2022-08-03T20:18:39.306Z,6.63
2022-08-03T20:21:14.745Z,6.43
2022-08-03T20:24:03.100Z,5.45
2022-08-03T20:26:29.761Z,7.75
2022-08-03T20:29:08.944Z,7.60
2022-08-03T20:31:37.439Z,9.13
2022-08-03T20:34:04.823Z,13.02
2022-08-03T20:36:31.634Z,6.07
2022-08-03T20:38:58.877Z,11.18
2022-08-03T20:41:26.153Z,10.35
2022-08-03T20:43:55.609Z,13.27
2022-08-03T20:46:31.684Z,4.63
2022-08-03T20:49:03.951Z,9.60
2022-08-03T20:51:49.039Z,5.43
2022-08-03T20:54:23.150Z,6.70
2022-08-03T20:56:56.781Z,9.25
2022-08-03T20:59:23.384Z,6.63
2022-08-03T21:01:50.662Z,9.93
2022-08-03T21:04:21.092Z,7.28
2022-08-03T21:07:00.630Z,4.53
2022-08-03T21:09:33.347Z,12.70
2022-08-03T21:12:03.007Z,7.28
2022-08-03T21:13:05.226Z,16.30
2022-08-03T21:14:35.550Z,4.50
2022-08-03T21:17:09.433Z,6.50
2022-08-03T21:19:41.497Z,8.50
2022-08-03T21:22:21.702Z,12.63
2022-08-03T21:24:54.042Z,8.68
2022-08-03T21:27:23.294Z,7.88
2022-08-03T21:29:53.119Z,7.53
2022-08-03T21:32:32.696Z,10.65
2022-08-03T21:35:00.080Z,9.85
2022-08-03T21:37:27.075Z,8.27
2022-08-03T21:39:54.083Z,9.00
2022-08-03T21:42:23.654Z,5.68
2022-08-03T21:44:51.620Z,6.70
2022-08-03T21:47:18.226Z,7.75
2022-08-03T21:50:04.434Z,7.85
2022-08-03T21:52:35.487Z,5.90
2022-08-03T21:55:03.758Z,6.55
2022-08-03T21:57:31.161Z,8.93
2022-08-03T22:00:02.257Z,4.57
2022-08-03T22:02:31.544Z,11.95
2022-08-03T22:04:58.883Z,6.88
2022-08-03T22:07:27.503Z,6.85
2022-08-03T22:09:57.967Z,5.90
2022-08-03T22:12:25.203Z,6.00
2022-08-03T22:14:53.575Z,7.28
2022-08-03T22:17:54.920Z,4.13
2022-08-03T22:20:14.992Z,6.03
2022-08-03T22:22:43.529Z,3.80
2022-08-03T22:25:23.739Z,5.93
2022-08-03T22:27:52.457Z,9.18
2022-08-03T22:30:19.358Z,6.70
2022-08-03T22:32:46.296Z,6.63
2022-08-03T22:35:13.694Z,5.22
2022-08-03T22:37:41.035Z,6.43
2022-08-03T22:40:10.319Z,3.50
2022-08-03T22:42:36.842Z,6.43
2022-08-03T22:45:05.069Z,6.75
2022-08-03T22:47:34.218Z,6.13
2022-08-03T22:50:31.539Z,8.82
2022-08-03T22:52:49.241Z,7.60
2022-08-03T22:55:18.830Z,4.57
2022-08-03T22:57:55.968Z,7.10
2022-08-03T23:00:25.860Z,7.32
2022-08-03T23:02:54.063Z,3.95
2022-08-03T23:06:01.114Z,7.43
2022-08-03T23:08:11.472Z,5.85
2022-08-03T23:10:42.582Z,7.72
2022-08-03T23:13:13.311Z,6.72
2022-08-03T23:15:40.012Z,5.45
2022-08-03T23:18:10.606Z,5.82
2022-08-03T23:20:37.803Z,4.50
2022-08-03T23:23:05.116Z,6.55
2022-08-03T23:25:31.622Z,5.95
2022-08-03T23:28:05.475Z,7.13
2022-08-03T23:30:33.234Z,7.70
2022-08-03T23:33:00.795Z,6.18
2022-08-03T23:36:28.660Z,4.22
2022-08-03T23:38:34.653Z,4.35
2022-08-03T23:41:02.040Z,5.82
2022-08-03T23:43:45.027Z,5.72
2022-08-03T23:46:19.707Z,5.60
2022-08-03T23:48:46.162Z,5.70
2022-08-03T23:51:36.968Z,4.75
2022-08-03T23:54:06.427Z,5.38
2022-08-03T23:56:45.526Z,5.57
2022-08-03T23:59:35.160Z,6.10
